createdAt,value
2022-12-06T00:01:16.160Z,98958.34
2022-12-06T00:03:45.951Z,98948.97
2022-12-06T00:06:19.057Z,98949.66
2022-12-06T00:08:49.031Z,98947.56
2022-12-06T00:11:18.647Z,98953.28
2022-12-06T00:13:47.608Z,98952.28
2022-12-06T00:16:17.261Z,98948.47
2022-12-06T00:18:47.137Z,98958.75
2022-12-06T00:21:20.803Z,98947.91
2022-12-06T00:23:51.590Z,98952.19
2022-12-06T00:26:20.675Z,98949.09
2022-12-06T00:28:49.135Z,98942.50
2022-12-06T00:31:20.279Z,98939.25
2022-12-06T00:33:48.439Z,98941.56
2022-12-06T00:36:18.473Z,98935.16
2022-12-06T00:38:46.931Z,98935.06
2022-12-06T00:41:18.274Z,98938.22
2022-12-06T00:43:47.026Z,98936.47
2022-12-06T00:46:17.439Z,98928.75
2022-12-06T00:48:45.611Z,98930.88
2022-12-06T00:51:13.913Z,98933.50
2022-12-06T00:53:42.150Z,98938.47
2022-12-06T00:56:10.598Z,98942.09
2022-12-06T00:58:40.257Z,98938.22
2022-12-06T01:01:11.922Z,98945.84
2022-12-06T01:03:39.877Z,98938.06
2022-12-06T01:06:09.735Z,98938.31
2022-12-06T01:08:38.014Z,98937.97
2022-12-06T01:11:06.883Z,98940.47
2022-12-06T01:13:36.815Z,98938.88
2022-12-06T01:16:11.044Z,98940.94
2022-12-06T01:18:39.783Z,98931.53
2022-12-06T01:21:08.785Z,98944.47
2022-12-06T01:23:36.934Z,98936.06
2022-12-06T01:26:17.480Z,98941.47
2022-12-06T01:28:45.487Z,98939.25
2022-12-06T01:31:15.530Z,98938.13
2022-12-06T01:33:44.193Z,98935.44
2022-12-06T01:36:17.674Z,98936.28
2022-12-06T01:38:45.914Z,98932.16
2022-12-06T01:41:13.661Z,98929.25
2022-12-06T01:43:43.827Z,98922.78
2022-12-06T01:46:22.416Z,98934.84
2022-12-06T01:48:55.477Z,98925.88
2022-12-06T01:51:24.085Z,98925.84
2022-12-06T01:53:53.763Z,98916.69
2022-12-06T01:56:22.506Z,98925.44
2022-12-06T01:58:55.496Z,98923.50
2022-12-06T02:01:29.284Z,98926.50
2022-12-06T02:03:59.775Z,98923.50
2022-12-06T02:06:28.731Z,98921.59
2022-12-06T02:08:58.141Z,98923.97
2022-12-06T02:11:30.679Z,98920.06
2022-12-06T02:14:02.337Z,98912.16
2022-12-06T02:17:03.839Z,98916.88
2022-12-06T02:19:53.241Z,98910.50
2022-12-06T02:22:28.705Z,98918.97
2022-12-06T02:25:06.862Z,98909.25
2022-12-06T02:28:19.393Z,98915.69
2022-12-06T02:30:56.704Z,98912.94
2022-12-06T02:33:28.214Z,98910.94
2022-12-06T02:36:01.877Z,98904.94
2022-12-06T02:38:35.693Z,98898.84
2022-12-06T02:41:09.396Z,98903.94
2022-12-06T02:43:41.991Z,98898.97
2022-12-06T02:46:14.021Z,98906.19
2022-12-06T02:48:44.066Z,98900.25
2022-12-06T02:51:15.390Z,98893.41
2022-12-06T02:53:47.758Z,98893.72
2022-12-06T02:56:17.667Z,98893.53
2022-12-06T02:58:45.671Z,98897.78
2022-12-06T03:01:17.902Z,98896.22
2022-12-06T03:04:08.664Z,98898.16
2022-12-06T03:07:07.163Z,98904.78
2022-12-06T03:09:49.607Z,98897.44
2022-12-06T03:12:29.960Z,98902.97
2022-12-06T03:15:10.038Z,98894.69
2022-12-06T03:17:43.579Z,98889.44
2022-12-06T03:20:16.824Z,98891.97
2022-12-06T03:22:50.202Z,98882.44
2022-12-06T03:25:19.005Z,98884.56
2022-12-06T03:27:49.318Z,98885.81
2022-12-06T03:30:17.785Z,98877.66
2022-12-06T03:32:49.859Z,98878.19
2022-12-06T03:35:23.218Z,98874.09
2022-12-06T03:37:56.786Z,98873.63
2022-12-06T03:40:29.259Z,98871.78
2022-12-06T03:42:58.465Z,98868.31
2022-12-06T03:45:34.819Z,98876.38
2022-12-06T03:48:09.474Z,98870.38
2022-12-06T03:50:41.294Z,98870.50
2022-12-06T03:53:09.443Z,98873.13
2022-12-06T03:55:37.225Z,98875.75
2022-12-06T03:58:05.309Z,98870.00
2022-12-06T04:00:33.101Z,98864.94
2022-12-06T04:03:00.986Z,98869.97
2022-12-06T04:05:30.371Z,98860.00
2022-12-06T04:07:58.235Z,98862.41
2022-12-06T04:10:29.051Z,98863.13
2022-12-06T04:13:02.730Z,98857.31
2022-12-06T04:15:33.198Z,98859.38
2022-12-06T04:18:13.964Z,98853.44
2022-12-06T04:21:02.881Z,98848.59
2022-12-06T04:23:33.215Z,98854.44
2022-12-06T04:26:01.260Z,98843.88
2022-12-06T04:28:46.419Z,98842.22
2022-12-06T04:31:31.668Z,98841.53
2022-12-06T04:34:17.061Z,98839.56
2022-12-06T04:37:04.518Z,98837.72
2022-12-06T04:39:32.824Z,98839.56
2022-12-06T04:42:18.021Z,98840.16
2022-12-06T04:44:45.919Z,98838.41
2022-12-06T04:47:16.979Z,98830.84
2022-12-06T04:49:44.841Z,98831.16
2022-12-06T04:52:14.630Z,98834.16
2022-12-06T04:54:43.069Z,98832.06
2022-12-06T04:57:14.410Z,98829.28
2022-12-06T04:59:43.980Z,98824.31
2022-12-06T05:02:14.887Z,98823.81
2022-12-06T05:04:43.169Z,98832.94
2022-12-06T05:07:11.654Z,98821.84
2022-12-06T05:09:43.058Z,98823.84
2022-12-06T05:12:11.029Z,98824.22
2022-12-06T05:14:38.795Z,98821.38
2022-12-06T05:17:06.606Z,98828.91
2022-12-06T05:19:34.471Z,98831.69
2022-12-06T05:22:02.301Z,98841.41
2022-12-06T05:24:30.169Z,98833.09
2022-12-06T05:26:59.333Z,98829.81
2022-12-06T05:29:27.115Z,98825.78
2022-12-06T05:31:54.932Z,98828.41
2022-12-06T05:34:22.925Z,98827.59
2022-12-06T05:36:50.836Z,98819.97
2022-12-06T05:39:18.626Z,98819.44
2022-12-06T05:41:46.324Z,98827.09
2022-12-06T05:44:15.419Z,98823.97
2022-12-06T05:46:43.238Z,98826.59
2022-12-06T05:49:11.130Z,98822.91
2022-12-06T05:51:39.414Z,98829.06
2022-12-06T05:54:07.304Z,98815.13
2022-12-06T05:56:35.265Z,98820.19
2022-12-06T05:59:05.139Z,98821.75
2022-12-06T06:01:34.408Z,98822.13
2022-12-06T06:04:02.480Z,98829.19
2022-12-06T06:06:30.366Z,98831.81
2022-12-06T06:08:58.274Z,98836.56
2022-12-06T06:11:26.285Z,98833.38
2022-12-06T06:13:54.824Z,98840.19
2022-12-06T06:16:25.111Z,98827.25
2022-12-06T06:18:54.366Z,98827.16
2022-12-06T06:21:22.506Z,98827.91
2022-12-06T06:23:50.273Z,98831.06
2022-12-06T06:26:18.139Z,98828.13
2022-12-06T06:28:45.934Z,98827.38
2022-12-06T06:31:13.726Z,98822.91
2022-12-06T06:33:41.562Z,98825.09
2022-12-06T06:36:11.521Z,98816.13
2022-12-06T06:38:39.600Z,98820.16
2022-12-06T06:41:07.930Z,98816.66
2022-12-06T06:43:35.876Z,98813.50
2022-12-06T06:46:06.847Z,98816.75
2022-12-06T06:48:37.206Z,98825.09
2022-12-06T06:51:05.871Z,98832.00
2022-12-06T06:53:35.270Z,98828.31
2022-12-06T06:56:03.687Z,98834.16
2022-12-06T06:58:31.581Z,98833.69
2022-12-06T07:01:01.144Z,98832.16
2022-12-06T07:03:30.031Z,98830.06
2022-12-06T07:05:59.724Z,98824.38
2022-12-06T07:08:28.973Z,98828.94
2022-12-06T07:10:58.431Z,98834.31
2022-12-06T07:13:28.264Z,98829.38
2022-12-06T07:15:56.557Z,98827.38
2022-12-06T07:18:24.380Z,98835.13
2022-12-06T07:21:00.378Z,98825.94
2022-12-06T07:23:28.450Z,98833.72
2022-12-06T07:26:06.130Z,98819.47
2022-12-06T07:28:36.333Z,98828.03
2022-12-06T07:31:09.424Z,98835.06
2022-12-06T07:33:37.309Z,98826.63
2022-12-06T07:36:14.287Z,98829.50
2022-12-06T07:38:43.682Z,98830.78
2022-12-06T07:41:40.670Z,98832.31
2022-12-06T07:44:36.477Z,98835.25
2022-12-06T07:47:04.590Z,98828.94
2022-12-06T07:49:32.757Z,98833.56
2022-12-06T07:52:00.631Z,98831.88
2022-12-06T07:54:28.526Z,98833.72
2022-12-06T07:56:57.626Z,98839.09
2022-12-06T07:59:26.408Z,98829.44
2022-12-06T08:01:54.454Z,98832.72
2022-12-06T08:04:22.828Z,98833.06
2022-12-06T08:06:50.696Z,98835.16
2022-12-06T08:09:18.520Z,98840.66
2022-12-06T08:11:46.504Z,98834.94
2022-12-06T08:14:15.822Z,98837.41
2022-12-06T08:16:43.613Z,98843.59
2022-12-06T08:19:11.458Z,98839.25
2022-12-06T08:21:39.310Z,98834.25
2022-12-06T08:24:10.561Z,98836.72
2022-12-06T08:26:38.331Z,98834.78
2022-12-06T08:29:06.187Z,98823.72
2022-12-06T08:31:35.906Z,98833.41
2022-12-06T08:34:04.921Z,98831.09
2022-12-06T08:36:32.888Z,98831.09
2022-12-06T08:39:02.043Z,98831.56
2022-12-06T08:41:47.390Z,98833.38
2022-12-06T08:44:16.732Z,98830.94
2022-12-06T08:46:47.142Z,98832.44
2022-12-06T08:49:16.081Z,98843.78
2022-12-06T08:51:44.228Z,98837.53
2022-12-06T08:54:16.859Z,98837.38
2022-12-06T08:56:44.760Z,98843.22
2022-12-06T08:59:12.872Z,98838.56
2022-12-06T09:01:40.941Z,98844.16
2022-12-06T09:04:14.210Z,98846.97
2022-12-06T09:06:43.879Z,98840.03
2022-12-06T09:09:13.838Z,98848.34
2022-12-06T09:11:42.502Z,98845.63
2022-12-06T09:14:17.882Z,98845.03
2022-12-06T09:16:49.537Z,98846.56
2022-12-06T09:19:19.818Z,98846.56
2022-12-06T09:21:47.681Z,98858.75
2022-12-06T09:24:17.917Z,98852.47
2022-12-06T09:26:45.812Z,98847.50
2022-12-06T09:29:14.203Z,98853.34
2022-12-06T09:31:42.484Z,98841.84
2022-12-06T09:34:11.896Z,98845.47
2022-12-06T09:36:45.113Z,98851.97
2022-12-06T09:39:16.138Z,98848.09
2022-12-06T09:42:10.658Z,98853.25
2022-12-06T09:45:02.929Z,98850.63
2022-12-06T09:47:48.049Z,98843.38
2022-12-06T09:50:26.890Z,98845.97
2022-12-06T09:53:15.934Z,98840.13
2022-12-06T09:56:00.246Z,98852.47
2022-12-06T09:58:45.444Z,98854.19
2022-12-06T10:01:25.744Z,98852.88
2022-12-06T10:04:07.308Z,98851.16
2022-12-06T10:06:41.517Z,98856.88
2022-12-06T10:09:25.915Z,98839.72
2022-12-06T10:12:10.815Z,98842.91
2022-12-06T10:14:55.660Z,98843.63
2022-12-06T10:17:34.799Z,98845.28
2022-12-06T10:20:15.554Z,98840.03
2022-12-06T10:22:59.660Z,98843.69
2022-12-06T10:25:39.417Z,98850.47
2022-12-06T10:28:13.625Z,98840.03
2022-12-06T10:30:48.496Z,98844.69
2022-12-06T10:33:31.355Z,98836.81
2022-12-06T10:36:02.205Z,98830.13
2022-12-06T10:38:38.394Z,98840.75
2022-12-06T10:41:15.540Z,98834.69
2022-12-06T10:43:51.312Z,98824.38
2022-12-06T10:46:45.218Z,98827.91
2022-12-06T10:49:23.338Z,98826.19
2022-12-06T10:51:58.422Z,98820.59
2022-12-06T10:54:31.563Z,98817.63
2022-12-06T10:57:06.331Z,98822.25
2022-12-06T10:59:38.290Z,98819.84
2022-12-06T11:02:21.458Z,98814.81
2022-12-06T11:04:50.407Z,98813.66
2022-12-06T11:07:24.821Z,98813.91
2022-12-06T11:09:54.680Z,98813.47
2022-12-06T11:12:31.480Z,98812.34
2022-12-06T11:15:05.141Z,98809.31
2022-12-06T11:17:37.714Z,98809.09
2022-12-06T11:20:16.424Z,98809.81
2022-12-06T11:22:53.419Z,98812.50
2022-12-06T11:25:29.680Z,98811.91
2022-12-06T11:28:06.444Z,98809.41
2022-12-06T11:30:37.064Z,98808.66
2022-12-06T11:33:06.064Z,98809.03
2022-12-06T11:35:34.066Z,98820.75
2022-12-06T11:38:05.133Z,98815.13
2022-12-06T11:40:37.812Z,98828.56
2022-12-06T11:43:16.681Z,98822.31
2022-12-06T11:45:45.846Z,98813.97
2022-12-06T11:48:16.962Z,98812.69
2022-12-06T11:50:46.238Z,98819.00
2022-12-06T11:53:20.366Z,98827.44
2022-12-06T11:55:53.141Z,98815.78
2022-12-06T11:58:27.918Z,98817.81
2022-12-06T12:01:02.285Z,98826.25
2022-12-06T12:03:32.524Z,98822.91
2022-12-06T12:06:17.663Z,98816.75
2022-12-06T12:09:01.296Z,98820.22
2022-12-06T12:11:31.621Z,98817.22
2022-12-06T12:14:03.697Z,98821.22
2022-12-06T12:16:37.073Z,98820.06
2022-12-06T12:19:18.269Z,98815.94
2022-12-06T12:21:50.953Z,98816.34
2022-12-06T12:27:41.051Z,98810.72
2022-12-06T12:30:25.521Z,98811.66
2022-12-06T12:33:11.213Z,98817.06
2022-12-06T12:35:40.690Z,98812.75
2022-12-06T12:38:19.808Z,98810.22
2022-12-06T12:40:51.115Z,98803.00
2022-12-06T12:43:21.921Z,98800.69
2022-12-06T12:46:21.143Z,98813.13
2022-12-06T12:48:51.105Z,98815.13
2022-12-06T12:51:32.199Z,98810.88
2022-12-06T12:54:01.953Z,98809.41
2022-12-06T12:56:33.652Z,98808.09
2022-12-06T12:59:05.312Z,98795.53
2022-12-06T13:01:42.545Z,98802.41
2022-12-06T13:04:18.578Z,98800.41
2022-12-06T13:06:50.931Z,98797.31
2022-12-06T13:09:26.149Z,98802.72
2022-12-06T13:12:02.678Z,98788.03
2022-12-06T13:14:32.455Z,98795.75
2022-12-06T13:17:07.720Z,98790.91
2022-12-06T13:19:40.467Z,98793.69
2022-12-06T13:22:16.587Z,98795.31
2022-12-06T13:24:53.096Z,98795.47
2022-12-06T13:27:23.942Z,98787.91
2022-12-06T13:29:56.713Z,98795.94
2022-12-06T13:32:33.307Z,98798.06
2022-12-06T13:35:06.681Z,98788.22
2022-12-06T13:37:42.950Z,98781.91
2022-12-06T13:40:39.793Z,98791.38
2022-12-06T13:43:54.707Z,98783.81
2022-12-06T13:46:31.100Z,98784.97
2022-12-06T13:49:02.188Z,98786.06
2022-12-06T13:51:44.879Z,98789.84
2022-12-06T13:54:37.105Z,98786.97
2022-12-06T13:57:25.885Z,98797.88
2022-12-06T13:59:53.803Z,98801.19
2022-12-06T14:02:51.065Z,98795.00
2022-12-06T14:08:31.242Z,98799.63
2022-12-06T14:11:21.405Z,98796.41
2022-12-06T14:13:59.962Z,98799.63
2022-12-06T14:16:33.586Z,98806.44
2022-12-06T14:19:03.872Z,98802.81
2022-12-06T14:21:38.635Z,98806.75
2022-12-06T14:24:08.181Z,98797.06
2022-12-06T14:26:36.507Z,98797.00
2022-12-06T14:29:04.432Z,98798.00
2022-12-06T14:31:40.139Z,98797.41
2022-12-06T14:34:25.675Z,98797.91
2022-12-06T14:36:54.134Z,98799.34
2022-12-06T14:39:26.479Z,98802.09
2022-12-06T14:42:14.294Z,98795.09
2022-12-06T14:44:47.799Z,98796.56
2022-12-06T14:47:17.541Z,98803.94
2022-12-06T14:50:03.472Z,98799.63
2022-12-06T14:52:32.353Z,98802.56
2022-12-06T14:55:18.138Z,98800.56
2022-12-06T14:57:48.391Z,98795.91
2022-12-06T15:00:26.299Z,98800.31
2022-12-06T15:03:17.788Z,98800.31
2022-12-06T15:05:49.681Z,98797.75
2022-12-06T15:08:33.885Z,98798.84
2022-12-06T15:11:05.353Z,98791.44
2022-12-06T15:13:32.782Z,98797.66
2022-12-06T15:16:05.437Z,98788.84
2022-12-06T15:18:36.160Z,98796.69
2022-12-06T15:21:12.128Z,98794.22
2022-12-06T15:23:41.018Z,98786.75
2022-12-06T15:26:13.119Z,98791.59
2022-12-06T15:28:41.416Z,98791.16
2022-12-06T15:31:17.483Z,98786.25
2022-12-06T15:33:45.872Z,98785.22
2022-12-06T15:36:17.998Z,98785.50
2022-12-06T15:38:46.204Z,98785.28
2022-12-06T15:41:18.673Z,98790.91
2022-12-06T15:43:47.208Z,98790.59
2022-12-06T15:46:19.664Z,98784.81
2022-12-06T15:48:50.809Z,98786.75
2022-12-06T15:51:21.283Z,98788.84
2022-12-06T15:53:51.979Z,98792.69
2022-12-06T15:56:23.008Z,98786.63
2022-12-06T15:58:51.906Z,98798.16
2022-12-06T16:01:22.528Z,98788.53
2022-12-06T16:03:52.076Z,98789.75
2022-12-06T16:06:21.742Z,98793.84
2022-12-06T16:08:50.233Z,98796.47
2022-12-06T16:11:20.550Z,98802.25
2022-12-06T16:13:50.664Z,98806.56
2022-12-06T16:16:20.481Z,98814.75
2022-12-06T16:18:48.919Z,98806.72
2022-12-06T16:21:21.799Z,98810.69
2022-12-06T16:24:14.234Z,98806.66
2022-12-06T16:26:45.082Z,98802.09
2022-12-06T16:29:17.114Z,98807.09
2022-12-06T16:31:46.029Z,98807.94
2022-12-06T16:34:14.840Z,98812.28
2022-12-06T16:36:56.262Z,98804.22
2022-12-06T16:39:24.307Z,98808.38
2022-12-06T16:41:52.058Z,98811.13
2022-12-06T16:44:21.457Z,98804.09
2022-12-06T16:46:49.693Z,98803.63
2022-12-06T16:49:45.290Z,98807.94
2022-12-06T16:52:07.825Z,98800.88
2022-12-06T16:54:35.892Z,98807.50
2022-12-06T16:57:03.871Z,98801.78
2022-12-06T16:59:33.026Z,98800.41
2022-12-06T17:02:01.649Z,98808.72
2022-12-06T17:04:31.458Z,98813.19
2022-12-06T17:06:59.315Z,98815.66
2022-12-06T17:09:29.693Z,98811.50
2022-12-06T17:12:07.595Z,98811.34
2022-12-06T17:14:37.940Z,98811.28
2022-12-06T17:17:06.203Z,98814.09
2022-12-06T17:19:34.542Z,98805.00
2022-12-06T17:22:06.214Z,98804.31
2022-12-06T17:24:34.453Z,98807.19
2022-12-06T17:27:02.379Z,98812.19
2022-12-06T17:29:30.319Z,98811.03
2022-12-06T17:31:59.495Z,98804.03
2022-12-06T17:34:27.518Z,98805.47
2022-12-06T17:36:57.387Z,98800.56
2022-12-06T17:39:26.056Z,98792.63
2022-12-06T17:42:11.218Z,98795.16
2022-12-06T17:44:39.787Z,98796.84
2022-12-06T17:47:09.012Z,98799.31
2022-12-06T17:49:38.403Z,98801.41
2022-12-06T17:52:08.784Z,98799.22
2022-12-06T17:54:36.729Z,98798.22
2022-12-06T17:57:04.726Z,98799.75
2022-12-06T17:59:33.985Z,98800.94
2022-12-06T18:02:18.381Z,98809.34
2022-12-06T18:04:48.486Z,98805.25
2022-12-06T18:07:17.247Z,98808.41
2022-12-06T18:09:47.426Z,98803.63
2022-12-06T18:12:17.215Z,98807.03
2022-12-06T18:14:45.310Z,98807.94
2022-12-06T18:17:13.645Z,98808.56
2022-12-06T18:19:46.735Z,98813.97
2022-12-06T18:22:16.433Z,98811.19
2022-12-06T18:24:44.640Z,98815.97
2022-12-06T18:27:12.840Z,98818.66
2022-12-06T18:29:43.184Z,98821.53
2022-12-06T18:32:11.110Z,98821.28
2022-12-06T18:34:41.218Z,98822.22
2022-12-06T18:37:09.282Z,98818.00
2022-12-06T18:39:40.748Z,98821.06
2022-12-06T18:42:08.547Z,98820.47
2022-12-06T18:44:36.438Z,98819.50
2022-12-06T18:47:04.308Z,98814.81
2022-12-06T18:49:32.321Z,98817.53
2022-12-06T18:52:00.130Z,98815.66
2022-12-06T18:54:30.306Z,98820.38
2022-12-06T18:56:59.888Z,98813.19
2022-12-06T18:59:28.716Z,98817.41
2022-12-06T19:01:56.853Z,98814.28
2022-12-06T19:04:24.829Z,98819.91
2022-12-06T19:06:52.813Z,98819.19
2022-12-06T19:09:22.386Z,98819.97
2022-12-06T19:11:50.294Z,98821.53
2022-12-06T19:14:19.441Z,98815.09
2022-12-06T19:16:48.970Z,98820.16
2022-12-06T19:19:21.074Z,98822.63
2022-12-06T19:21:50.114Z,98815.69
2022-12-06T19:24:21.580Z,98824.72
2022-12-06T19:26:50.971Z,98817.69
2022-12-06T19:29:20.598Z,98822.13
2022-12-06T19:31:48.478Z,98816.38
2022-12-06T19:34:18.839Z,98823.91
2022-12-06T19:36:47.191Z,98814.59
2022-12-06T19:39:17.874Z,98814.44
2022-12-06T19:42:03.692Z,98816.13
2022-12-06T19:44:33.252Z,98812.75
2022-12-06T19:47:01.673Z,98815.28
2022-12-06T19:49:29.600Z,98802.25
2022-12-06T19:51:57.352Z,98807.06
2022-12-06T19:54:26.905Z,98816.28
2022-12-06T19:56:57.071Z,98812.91
2022-12-06T19:59:27.447Z,98811.81
2022-12-06T20:01:58.163Z,98813.06
2022-12-06T20:04:28.407Z,98813.75
2022-12-06T20:06:56.256Z,98815.22
2022-12-06T20:09:26.926Z,98811.44
2022-12-06T20:12:05.414Z,98810.19
2022-12-06T20:14:41.040Z,98808.88
2022-12-06T20:17:14.924Z,98804.78
2022-12-06T20:19:46.011Z,98803.75
2022-12-06T20:22:14.936Z,98804.09
2022-12-06T20:24:43.188Z,98798.19
2022-12-06T20:27:11.552Z,98810.03
2022-12-06T20:29:41.547Z,98805.56
2022-12-06T20:32:12.977Z,98803.59
2022-12-06T20:34:40.876Z,98800.66
2022-12-06T20:37:08.662Z,98809.19
2022-12-06T20:39:36.723Z,98806.66
2022-12-06T20:42:06.320Z,98805.09
2022-12-06T20:44:34.732Z,98810.13
2022-12-06T20:47:02.733Z,98813.97
2022-12-06T20:49:32.073Z,98818.47
2022-12-06T20:52:02.050Z,98811.63
2022-12-06T20:54:30.064Z,98813.50
2022-12-06T20:56:58.544Z,98819.16
2022-12-06T20:59:29.738Z,98814.66
2022-12-06T21:01:57.778Z,98812.59
2022-12-06T21:04:26.123Z,98810.59
2022-12-06T21:06:55.380Z,98825.06
2022-12-06T21:09:23.591Z,98814.44
2022-12-06T21:11:53.666Z,98820.22
2022-12-06T21:14:22.093Z,98811.81
2022-12-06T21:16:50.058Z,98812.19
2022-12-06T21:19:19.657Z,98819.06
2022-12-06T21:21:49.545Z,98810.13
2022-12-06T21:24:21.045Z,98809.84
2022-12-06T21:26:49.703Z,98814.66
2022-12-06T21:29:18.885Z,98810.13
2022-12-06T21:31:47.025Z,98809.56
2022-12-06T21:34:15.910Z,98806.78
2022-12-06T21:36:44.835Z,98810.22
2022-12-06T21:39:14.133Z,98809.81
2022-12-06T21:41:45.849Z,98817.13
2022-12-06T21:44:13.637Z,98816.44
2022-12-06T21:46:41.604Z,98816.44
2022-12-06T21:49:10.613Z,98815.50
2022-12-06T21:51:38.423Z,98816.28
2022-12-06T21:54:06.274Z,98816.28
2022-12-06T21:56:35.085Z,98818.44
2022-12-06T21:59:04.310Z,98817.22
2022-12-06T22:01:32.695Z,98819.00
2022-12-06T22:04:03.062Z,98820.84
2022-12-06T22:06:32.189Z,98820.44
2022-12-06T22:09:01.633Z,98824.00
2022-12-06T22:11:32.304Z,98818.44
2022-12-06T22:14:01.412Z,98819.84
2022-12-06T22:16:30.593Z,98820.16
2022-12-06T22:18:59.063Z,98830.19
2022-12-06T22:21:28.466Z,98829.94
2022-12-06T22:23:57.905Z,98828.31
2022-12-06T22:26:28.126Z,98829.94
2022-12-06T22:28:56.588Z,98825.69
2022-12-06T22:31:26.629Z,98830.47
2022-12-06T22:33:57.576Z,98832.47
2022-12-06T22:36:26.161Z,98825.94
2022-12-06T22:38:55.279Z,98823.06
2022-12-06T22:41:24.208Z,98826.16
2022-12-06T22:43:53.478Z,98821.22
2022-12-06T22:46:21.791Z,98820.06
2022-12-06T22:48:50.081Z,98820.50
2022-12-06T22:51:21.285Z,98823.78
2022-12-06T22:53:52.816Z,98820.91
2022-12-06T22:56:20.772Z,98811.28
2022-12-06T22:58:48.977Z,98811.34
2022-12-06T23:01:19.183Z,98814.44
2022-12-06T23:03:48.600Z,98809.88
2022-12-06T23:06:17.777Z,98822.75
2022-12-06T23:08:47.513Z,98816.50
2022-12-06T23:11:17.863Z,98817.06
2022-12-06T23:13:45.857Z,98817.06
2022-12-06T23:16:15.538Z,98815.97
2022-12-06T23:18:43.871Z,98817.81
2022-12-06T23:21:14.801Z,98820.59
2022-12-06T23:23:49.296Z,98819.19
2022-12-06T23:26:18.513Z,98806.25
2022-12-06T23:28:47.266Z,98818.09
2022-12-06T23:31:21.167Z,98814.28
2022-12-06T23:33:52.917Z,98813.34
2022-12-06T23:36:23.021Z,98808.50
2022-12-06T23:38:52.630Z,98811.97
2022-12-06T23:41:22.244Z,98806.66
2022-12-06T23:43:50.438Z,98809.28
2022-12-06T23:46:22.544Z,98813.34
2022-12-06T23:48:50.958Z,98805.19
2022-12-06T23:51:20.854Z,98810.81
2022-12-06T23:53:52.857Z,98807.03
2022-12-06T23:56:22.749Z,98802.19
2022-12-06T23:58:53.377Z,98801.00
